Time;durP1;ratioP1;P1;durP2;ratioP2;P2;SDS_P1;SDS_P2;PMS_P1;PMS_P2;Temp;Humidity;BMP_temperature;BMP_pressure;BME280_temperature;BME280_humidity;BME280_pressure;Samples;Min_cycle;Max_cycle;Signal;HPM_P1;HPM_P2
2022/01/02 00:02:21;;;;;;;1.00;0.90;;;18.40;75.00;;;;;;5071824;28;45302;-81
2022/01/02 00:04:54;;;;;;;1.70;1.00;;;18.50;76.20;;;;;;5067833;28;45294;-80
2022/01/02 00:07:22;;;;;;;1.52;0.90;;;18.50;75.00;;;;;;5061909;28;45300;-80
2022/01/02 00:09:54;;;;;;;1.90;1.10;;;18.50;75.40;;;;;;5062041;28;46252;-79
2022/01/02 00:12:24;;;;;;;1.10;0.93;;;18.50;74.90;;;;;;5059033;28;45568;-79
2022/01/02 00:14:56;;;;;;;1.90;1.00;;;18.50;74.90;;;;;;5064390;28;45118;-79
2022/01/02 00:17:24;;;;;;;1.35;1.10;;;18.50;75.40;;;;;;5065358;28;47043;-79
2022/01/02 00:19:58;;;;;;;1.13;1.00;;;18.50;75.00;;;;;;5065621;28;47467;-81
2022/01/02 00:22:32;;;;;;;1.15;1.05;;;18.50;74.90;;;;;;5073879;28;45299;-81
2022/01/02 00:25:03;;;;;;;1.38;1.00;;;18.40;75.30;;;;;;5071465;28;45446;-81
2022/01/02 00:27:32;;;;;;;1.10;0.80;;;18.40;74.70;;;;;;5065547;28;45338;-79
2022/01/02 00:30:00;;;;;;;1.73;1.27;;;18.70;75.00;;;;;;5068968;28;46608;-79
2022/01/02 00:32:29;;;;;;;1.23;1.00;;;18.40;74.70;;;;;;5066591;28;46128;-79
2022/01/02 00:34:59;;;;;;;1.27;0.80;;;18.40;74.60;;;;;;5066037;28;45170;-79
2022/01/02 00:37:26;;;;;;;1.70;1.17;;;18.40;74.40;;;;;;5065148;28;45528;-79
2022/01/02 00:39:55;;;;;;;1.30;1.05;;;18.40;74.40;;;;;;5068608;28;45539;-81
2022/01/02 00:42:30;;;;;;;1.42;0.80;;;18.40;76.60;;;;;;5075506;28;45311;-80
2022/01/02 00:45:02;;;;;;;1.30;1.00;;;18.60;74.70;;;;;;5069588;28;45228;-80
2022/01/02 00:47:38;;;;;;;2.58;1.05;;;18.40;74.40;;;;;;5066376;28;45272;-79
2022/01/02 00:50:11;;;;;;;1.42;0.90;;;18.40;74.20;;;;;;5065084;28;47693;-79
2022/01/02 00:52:40;;;;;;;1.73;1.00;;;18.50;74.30;;;;;;5067695;28;45255;-79
2022/01/02 00:55:20;;;;;;;1.40;1.08;;;18.40;74.20;;;;;;5065140;28;46115;-79
2022/01/02 00:57:57;;;;;;;1.33;0.82;;;18.50;74.10;;;;;;5070317;28;45232;-80
2022/01/02 01:00:27;;;;;;;1.08;0.90;;;18.50;74.50;;;;;;5075336;28;48095;-81
2022/01/02 01:02:57;;;;;;;1.15;1.00;;;18.50;73.80;;;;;;5073838;28;45464;-80
2022/01/02 01:05:31;;;;;;;1.33;1.00;;;18.50;74.00;;;;;;5055208;28;45410;-80
2022/01/02 01:08:10;;;;;;;1.38;1.02;;;18.50;73.80;;;;;;5063033;28;45276;-79
2022/01/02 01:10:43;;;;;;;1.17;0.90;;;18.50;73.80;;;;;;5062102;28;46603;-79
2022/01/02 01:13:15;;;;;;;1.70;0.90;;;18.50;73.60;;;;;;5063536;28;45318;-79
2022/01/02 01:15:42;;;;;;;1.85;1.13;;;18.50;73.50;;;;;;5065716;28;45554;-79
2022/01/02 01:18:11;;;;;;;0.93;0.82;;;18.50;73.70;;;;;;5068826;28;45438;-81
2022/01/02 01:20:43;;;;;;;1.30;1.00;;;18.40;74.20;;;;;;5071416;28;45660;-81
2022/01/02 01:23:15;;;;;;;1.58;1.13;;;18.40;73.20;;;;;;5062040;28;45529;-80
2022/01/02 01:25:45;;;;;;;1.00;0.90;;;18.40;73.70;;;;;;5066350;28;45301;-80
2022/01/02 01:28:14;;;;;;;1.23;1.00;;;18.40;74.20;;;;;;5047688;28;45646;-79
2022/01/02 01:30:41;;;;;;;1.10;0.93;;;18.40;73.20;;;;;;5064748;28;47471;-79
2022/01/02 01:33:09;;;;;;;2.70;1.13;;;18.40;73.50;;;;;;5067017;28;45384;-79
2022/01/02 01:35:37;;;;;;;1.40;1.17;;;18.40;73.10;;;;;;5069474;28;45172;-79
2022/01/02 01:38:10;;;;;;;1.08;0.93;;;18.40;73.50;;;;;;5063308;28;45256;-80
2022/01/02 01:40:46;;;;;;;3.63;0.85;;;18.50;73.50;;;;;;5052794;28;46167;-80
2022/01/02 01:43:14;;;;;;;1.08;0.90;;;18.50;73.30;;;;;;5068511;28;45536;-80
2022/01/02 01:45:43;;;;;;;1.10;1.00;;;18.50;73.10;;;;;;5068641;28;45432;-79
2022/01/02 01:48:10;;;;;;;1.25;1.00;;;18.50;73.10;;;;;;5065379;28;45451;-79
2022/01/02 01:50:42;;;;;;;1.65;0.95;;;18.50;73.00;;;;;;5065798;28;48533;-79
2022/01/02 01:53:12;;;;;;;1.77;1.08;;;18.50;72.90;;;;;;5065204;28;45197;-79
2022/01/02 01:55:40;;;;;;;1.55;1.10;;;18.50;72.90;;;;;;5063645;28;45342;-79
2022/01/02 01:58:09;;;;;;;1.45;1.10;;;18.50;73.00;;;;;;5061210;28;45354;-79
2022/01/02 02:00:37;;;;;;;1.63;1.17;;;18.50;72.80;;;;;;5069975;28;45263;-81
2022/01/02 02:03:05;;;;;;;1.20;1.00;;;18.50;75.10;;;;;;5067647;28;46057;-80
2022/01/02 02:05:33;;;;;;;1.10;0.90;;;18.50;72.70;;;;;;5054494;28;45435;-80
2022/01/02 02:08:00;;;;;;;1.50;1.00;;;18.50;73.20;;;;;;5050279;28;45353;-80
2022/01/02 02:10:38;;;;;;;1.58;0.95;;;18.50;72.80;;;;;;5064238;28;47115;-80
2022/01/02 02:13:07;;;;;;;1.10;1.00;;;18.50;72.50;;;;;;5063975;28;45468;-79
2022/01/02 02:15:35;;;;;;;1.33;1.02;;;18.50;72.40;;;;;;5062171;28;45292;-79
2022/01/02 02:18:04;;;;;;;1.45;1.08;;;18.50;72.40;;;;;;5067631;28;45319;-79
2022/01/02 02:20:36;;;;;;;1.15;0.93;;;18.50;72.40;;;;;;5063093;28;47393;-80
2022/01/02 02:23:05;;;;;;;0.95;0.80;;;18.50;72.20;;;;;;5071456;28;45354;-81
2022/01/02 02:25:35;;;;;;;1.55;1.02;;;18.50;72.20;;;;;;5071069;28;45138;-80
2022/01/02 02:28:05;;;;;;;1.50;0.90;;;18.40;72.60;;;;;;5071338;28;45401;-80
2022/01/02 02:30:38;;;;;;;0.98;0.88;;;18.50;72.60;;;;;;5069467;28;47736;-80
2022/01/02 02:33:08;;;;;;;1.30;1.17;;;18.50;72.80;;;;;;5064862;28;46675;-79
2022/01/02 02:35:42;;;;;;;1.50;0.95;;;18.50;72.30;;;;;;5066505;28;45188;-79
2022/01/02 02:38:11;;;;;;;1.88;1.08;;;18.50;72.30;;;;;;5063115;28;45248;-79
2022/01/02 02:40:40;;;;;;;1.00;0.90;;;18.50;72.20;;;;;;5064873;28;47049;-79
2022/01/02 02:43:23;;;;;;;1.73;1.17;;;18.60;72.20;;;;;;5065518;28;45414;-80
2022/01/02 02:49:06;;;;;;;1.52;1.00;;;18.50;73.20;;;;;;5063006;28;45292;-80
2022/01/02 02:51:48;;;;;;;1.38;1.15;;;18.60;72.10;;;;;;5064745;28;46499;-79
2022/01/02 02:54:20;;;;;;;1.48;1.17;;;18.60;72.30;;;;;;5066903;28;45270;-79
2022/01/02 02:56:55;;;;;;;1.70;1.17;;;18.50;72.10;;;;;;5063639;28;45367;-79
2022/01/02 02:59:24;;;;;;;1.25;1.10;;;18.50;72.00;;;;;;5063379;28;45395;-79
2022/01/02 03:01:53;;;;;;;2.83;1.40;;;18.50;73.10;;;;;;5064065;28;48385;-79
2022/01/02 03:04:22;;;;;;;2.15;1.35;;;18.50;71.80;;;;;;5045734;28;45299;-79
2022/01/02 03:06:57;;;;;;;1.00;0.90;;;18.50;71.90;;;;;;5068146;28;45485;-81
2022/01/02 03:09:37;;;;;;;2.70;1.27;;;18.50;73.20;;;;;;5051908;28;45142;-80
2022/01/02 03:12:08;;;;;;;1.27;1.05;;;18.50;71.90;;;;;;5068093;28;47401;-80
2022/01/02 03:14:37;;;;;;;1.73;1.40;;;18.50;72.10;;;;;;5059633;28;45328;-80
2022/01/02 03:17:06;;;;;;;1.70;1.15;;;18.50;72.80;;;;;;5064566;28;45281;-79
2022/01/02 03:19:34;;;;;;;1.20;0.98;;;18.50;71.90;;;;;;5044013;28;45512;-79
2022/01/02 03:22:10;;;;;;;1.00;0.88;;;18.50;72.10;;;;;;5050262;28;46334;-79
2022/01/02 03:24:40;;;;;;;1.55;0.88;;;18.50;72.00;;;;;;5053975;28;45293;-79
2022/01/02 03:27:07;;;;;;;1.38;1.08;;;18.50;71.90;;;;;;5059069;28;45355;-79
2022/01/02 03:29:36;;;;;;;1.75;1.10;;;18.50;71.90;;;;;;5054873;28;45478;-80
2022/01/02 03:32:03;;;;;;;1.88;1.05;;;18.50;71.90;;;;;;5057386;28;47581;-79
2022/01/02 03:34:30;;;;;;;1.00;0.88;;;18.60;72.40;;;;;;5054035;28;45533;-79
2022/01/02 03:36:58;;;;;;;1.75;1.25;;;18.60;72.90;;;;;;5054831;28;45467;-79
2022/01/02 03:39:28;;;;;;;1.10;1.00;;;18.50;72.80;;;;;;5065188;28;45527;-78
2022/01/02 03:41:56;;;;;;;1.50;1.10;;;18.60;72.90;;;;;;5066292;28;45300;-78
2022/01/02 03:44:26;;;;;;;1.05;0.90;;;18.60;73.00;;;;;;5058593;28;45259;-78
2022/01/02 03:46:58;;;;;;;1.58;1.00;;;18.60;73.20;;;;;;5061989;28;45303;-78
2022/01/02 03:49:25;;;;;;;1.50;1.10;;;18.50;73.20;;;;;;5065022;28;45317;-78
2022/01/02 03:51:53;;;;;;;1.35;1.02;;;18.50;73.30;;;;;;5076246;28;45428;-78
2022/01/02 03:54:20;;;;;;;1.52;1.13;;;18.60;74.50;;;;;;5067113;28;45464;-79
2022/01/02 03:56:53;;;;;;;1.60;1.10;;;18.50;73.40;;;;;;5068392;28;45224;-79
2022/01/02 03:59:20;;;;;;;1.70;1.00;;;18.50;73.60;;;;;;5059672;28;45315;-79
2022/01/02 04:01:47;;;;;;;2.22;1.25;;;18.50;73.60;;;;;;5067815;28;45353;-79
2022/01/02 04:04:17;;;;;;;1.15;1.00;;;18.50;74.60;;;;;;5068708;28;45239;-79
2022/01/02 04:06:44;;;;;;;1.17;0.93;;;18.50;73.70;;;;;;5067644;28;45311;-79
2022/01/02 04:09:12;;;;;;;1.50;1.20;;;18.50;73.80;;;;;;5067611;28;45317;-79
2022/01/02 04:11:40;;;;;;;1.70;1.25;;;18.50;73.80;;;;;;5068065;28;48191;-79
2022/01/02 04:14:09;;;;;;;1.23;1.02;;;18.50;73.90;;;;;;5066773;28;45241;-79
2022/01/02 04:16:37;;;;;;;1.88;1.23;;;18.50;74.00;;;;;;5065745;28;45285;-80
2022/01/02 04:19:04;;;;;;;1.17;1.00;;;18.60;74.10;;;;;;5066361;28;45357;-79
2022/01/02 04:21:32;;;;;;;1.05;0.93;;;18.60;74.00;;;;;;5049177;28;45352;-79
2022/01/02 04:23:59;;;;;;;1.17;1.00;;;18.50;73.90;;;;;;5070125;28;46010;-79
2022/01/02 04:26:28;;;;;;;1.55;0.93;;;18.50;74.00;;;;;;5071398;28;45480;-79
2022/01/02 04:28:58;;;;;;;1.73;1.13;;;17.70;73.30;;;;;;5070838;28;45410;-79
2022/01/02 04:31:29;;;;;;;1.55;1.20;;;18.60;74.10;;;;;;5053963;28;46065;-79
2022/01/02 04:34:01;;;;;;;1.38;0.98;;;18.60;74.30;;;;;;5070966;28;45658;-79
2022/01/02 04:36:29;;;;;;;1.30;1.10;;;18.60;74.10;;;;;;5071501;28;45354;-79
2022/01/02 04:38:57;;;;;;;1.20;1.02;;;18.60;74.20;;;;;;5068247;28;45534;-79
2022/01/02 04:41:26;;;;;;;1.50;1.20;;;18.60;74.20;;;;;;5070804;28;45280;-79
2022/01/02 04:43:53;;;;;;;1.40;1.10;;;18.60;74.30;;;;;;5066540;28;45233;-79
2022/01/02 04:46:20;;;;;;;1.42;1.10;;;18.60;74.30;;;;;;5070372;28;45307;-79
2022/01/02 04:48:49;;;;;;;1.83;1.25;;;18.50;74.20;;;;;;5071536;28;45494;-78
2022/01/02 04:51:16;;;;;;;1.55;1.20;;;18.50;74.40;;;;;;5070245;28;48587;-78
2022/01/02 04:53:48;;;;;;;1.25;1.00;;;18.50;74.50;;;;;;5068776;28;45304;-79
2022/01/02 04:56:17;;;;;;;2.03;1.17;;;18.50;74.50;;;;;;5069774;28;45321;-78
2022/01/02 04:58:44;;;;;;;1.40;0.98;;;18.50;74.40;;;;;;5069211;28;45502;-78
2022/01/02 05:01:16;;;;;;;1.20;1.00;;;18.50;74.60;;;;;;5069655;28;46555;-78
2022/01/02 05:03:44;;;;;;;1.83;1.20;;;18.50;74.60;;;;;;5068076;28;45316;-78
2022/01/02 05:06:13;;;;;;;1.17;0.93;;;18.50;74.70;;;;;;5070163;28;45355;-78
2022/01/02 05:08:43;;;;;;;1.80;1.20;;;18.50;74.70;;;;;;5068883;28;45414;-78
2022/01/02 05:11:10;;;;;;;2.13;1.20;;;18.50;74.50;;;;;;5069545;28;46362;-78
2022/01/02 05:13:37;;;;;;;1.92;1.10;;;18.50;74.60;;;;;;5071762;28;46321;-78
2022/01/02 05:16:06;;;;;;;1.08;0.93;;;18.60;74.70;;;;;;5263494;22;45958;-79
2022/01/02 05:18:33;;;;;;;1.50;1.20;;;18.60;74.70;;;;;;5023573;28;45206;-79
2022/01/02 05:21:01;;;;;;;2.45;1.40;;;18.60;74.70;;;;;;5028432;28;45403;-80
2022/01/02 05:23:37;;;;;;;1.25;1.15;;;18.60;74.60;;;;;;5020262;28;45165;-80
2022/01/02 05:26:12;;;;;;;1.30;0.98;;;18.60;74.90;;;;;;5033058;28;45210;-80
2022/01/02 05:28:41;;;;;;;1.20;1.10;;;18.60;74.70;;;;;;5035422;28;45362;-80
2022/01/02 05:31:10;;;;;;;1.73;1.20;;;18.60;74.90;;;;;;5018217;28;46843;-80
2022/01/02 05:33:40;;;;;;;1.55;1.02;;;18.50;75.00;;;;;;5034085;28;45938;-81
2022/01/02 05:36:12;;;;;;;3.72;2.05;;;18.50;75.20;;;;;;5038686;28;45257;-80
2022/01/02 05:38:46;;;;;;;1.40;1.30;;;18.50;75.10;;;;;;5039422;28;45615;-81
2022/01/02 05:41:22;;;;;;;1.40;1.20;;;18.60;75.10;;;;;;5038387;28;47243;-81
2022/01/02 05:43:51;;;;;;;1.98;1.40;;;18.50;75.20;;;;;;5040106;28;45142;-81
2022/01/02 05:46:20;;;;;;;3.70;1.40;;;18.50;75.90;;;;;;5035788;28;45233;-81
2022/01/02 05:48:52;;;;;;;2.30;1.30;;;18.50;75.10;;;;;;5034881;28;45347;-81
2022/01/02 05:51:26;;;;;;;1.30;1.17;;;18.60;75.20;;;;;;5042708;28;47814;-81
2022/01/02 05:54:00;;;;;;;2.35;1.33;;;18.50;75.20;;;;;;5014247;28;45442;-80
2022/01/02 05:56:50;;;;;;;1.63;1.33;;;18.50;75.40;;;;;;5035724;28;45321;-82
2022/01/02 05:59:27;;;;;;;2.78;1.45;;;17.30;74.10;;;;;;5038821;28;45665;-82
2022/01/02 06:02:01;;;;;;;1.85;1.35;;;18.50;74.80;;;;;;5041664;28;46354;-81
2022/01/02 06:04:33;;;;;;;2.13;1.40;;;18.70;78.00;;;;;;5056835;28;45194;-82
2022/01/02 06:07:04;;;;;;;1.45;1.30;;;18.60;74.40;;;;;;5049353;28;45643;-82
2022/01/02 06:09:42;;;;;;;1.75;1.15;;;19.10;75.80;;;;;;5042231;28;45196;-82
2022/01/02 06:14:54;;;;;;;1.95;1.20;;;18.60;74.50;;;;;;5023459;28;45318;-82
2022/01/02 06:20:22;;;;;;;1.80;1.30;;;18.70;78.10;;;;;;5041623;28;45370;-82
2022/01/02 06:23:00;;;;;;;1.75;1.40;;;18.50;74.30;;;;;;5048010;28;46750;-83
2022/01/02 06:25:33;;;;;;;3.15;1.20;;;18.40;75.50;;;;;;5046096;28;44919;-82
2022/01/02 06:28:17;;;;;;;1.63;1.38;;;19.90;78.70;;;;;;5044305;28;45334;-82
2022/01/02 06:30:53;;;;;;;4.63;1.50;;;18.60;74.70;;;;;;5045973;28;44923;-83
2022/01/02 06:33:27;;;;;;;1.88;1.20;;;18.90;77.70;;;;;;5052116;28;45278;-83
2022/01/02 06:36:00;;;;;;;1.60;1.27;;;18.80;78.40;;;;;;5043371;28;44778;-82
2022/01/02 06:38:33;;;;;;;2.30;1.42;;;18.90;75.30;;;;;;5039974;28;45377;-81
2022/01/02 06:41:11;;;;;;;1.83;1.40;;;18.80;75.20;;;;;;5042866;28;45188;-80
2022/01/02 06:49:10;;;;;;;1.40;1.15;;;18.60;75.40;;;;;;5030901;28;45299;-80
2022/01/02 06:51:41;;;;;;;1.25;1.13;;;18.60;75.70;;;;;;5033297;28;45611;-80
2022/01/02 06:54:18;;;;;;;1.42;1.33;;;18.60;75.20;;;;;;5015569;28;45848;-80
2022/01/02 06:56:54;;;;;;;1.40;1.10;;;18.60;75.70;;;;;;5036728;28;45285;-80
2022/01/02 06:59:23;;;;;;;1.95;1.48;;;18.60;75.30;;;;;;5034225;28;45266;-81
2022/01/02 07:01:52;;;;;;;2.22;1.30;;;18.60;75.20;;;;;;5019083;28;45253;-80
2022/01/02 07:04:20;;;;;;;2.40;1.38;;;18.60;75.30;;;;;;5031490;28;48765;-80
2022/01/02 07:06:48;;;;;;;1.45;1.02;;;18.60;75.50;;;;;;5026600;28;45229;-80
2022/01/02 07:09:31;;;;;;;2.97;1.40;;;18.60;75.20;;;;;;5032489;28;45442;-81
2022/01/02 07:12:01;;;;;;;1.85;1.10;;;18.60;75.10;;;;;;5035056;28;45204;-80
2022/01/02 07:14:33;;;;;;;1.25;1.00;;;18.60;75.30;;;;;;5018957;28;46338;-81
2022/01/02 07:17:01;;;;;;;1.75;1.10;;;18.60;76.10;;;;;;5041858;28;45615;-81
2022/01/02 07:19:32;;;;;;;1.75;1.20;;;18.60;75.50;;;;;;5032944;28;45313;-81
2022/01/02 07:22:05;;;;;;;1.75;1.38;;;18.30;75.20;;;;;;5027953;28;45891;-80
2022/01/02 07:24:34;;;;;;;2.08;1.30;;;18.60;75.50;;;;;;5026892;28;47300;-82
2022/01/02 07:27:12;;;;;;;2.13;1.20;;;19.20;76.80;;;;;;5030387;28;45182;-82
2022/01/02 07:29:43;;;;;;;1.63;1.33;;;21.10;78.00;;;;;;5035615;28;45300;-81
2022/01/02 07:32:16;;;;;;;1.80;1.13;;;18.60;77.40;;;;;;5039771;28;45253;-82
2022/01/02 07:34:45;;;;;;;1.25;0.90;;;18.50;76.40;;;;;;5030609;28;45451;-82
2022/01/02 07:37:12;;;;;;;1.48;1.20;;;18.70;76.10;;;;;;5026003;28;45313;-81
2022/01/02 07:39:40;;;;;;;1.63;1.20;;;18.50;78.90;;;;;;5026024;28;45355;-82
2022/01/02 07:42:09;;;;;;;1.45;1.13;;;18.50;79.60;;;;;;5027976;28;45288;-81
2022/01/02 07:47:20;;;;;;;2.47;1.30;;;21.00;78.40;;;;;;5043610;28;45454;-81
2022/01/02 07:49:48;;;;;;;1.52;1.10;;;19.10;76.30;;;;;;5035895;28;46150;-80
2022/01/02 07:52:18;;;;;;;1.40;1.20;;;18.60;76.10;;;;;;5039549;28;45265;-83
2022/01/02 07:54:50;;;;;;;1.50;1.13;;;18.60;80.40;;;;;;5037761;28;46273;-82
2022/01/02 07:57:21;;;;;;;0.88;0.80;;;18.70;78.70;;;;;;5020455;28;45379;-82
2022/01/02 07:59:49;;;;;;;2.17;1.40;;;18.60;76.00;;;;;;5039871;28;45166;-83
2022/01/02 08:02:21;;;;;;;2.08;1.20;;;18.50;77.10;;;;;;5047655;28;45352;-80
2022/01/02 08:04:52;;;;;;;1.63;1.30;;;18.50;76.50;;;;;;5038397;28;48674;-84
2022/01/02 08:07:20;;;;;;;2.08;1.50;;;16.70;77.50;;;;;;5027631;28;45553;-79
2022/01/02 08:09:50;;;;;;;1.52;1.08;;;18.60;76.20;;;;;;5038931;28;45428;-80
2022/01/02 08:12:18;;;;;;;1.92;1.40;;;18.60;76.10;;;;;;5029344;28;45264;-80
2022/01/02 08:14:47;;;;;;;1.45;1.15;;;18.60;77.00;;;;;;5032789;28;48278;-80
2022/01/02 08:17:16;;;;;;;1.33;1.20;;;18.60;76.00;;;;;;5022124;28;45346;-80
2022/01/02 08:19:43;;;;;;;2.15;1.48;;;18.60;75.90;;;;;;5018199;28;45419;-80
2022/01/02 08:22:11;;;;;;;1.70;1.20;;;18.60;76.20;;;;;;5031890;28;45509;-79
2022/01/02 08:24:41;;;;;;;1.60;1.10;;;18.60;77.20;;;;;;5030889;28;48399;-79
2022/01/02 08:27:08;;;;;;;1.92;1.23;;;18.60;76.20;;;;;;5036226;28;45697;-79
2022/01/02 08:29:36;;;;;;;1.42;1.20;;;18.60;76.10;;;;;;5034019;28;45205;-81
2022/01/02 08:32:07;;;;;;;2.08;1.45;;;18.60;76.30;;;;;;5040465;28;45184;-81
2022/01/02 08:34:35;;;;;;;2.05;1.30;;;18.50;76.30;;;;;;5030761;28;46944;-80
2022/01/02 08:37:02;;;;;;;1.63;1.20;;;18.50;76.60;;;;;;5031126;28;45323;-79
2022/01/02 08:39:30;;;;;;;1.00;0.90;;;18.50;75.90;;;;;;5032757;28;45228;-79
2022/01/02 08:42:05;;;;;;;1.25;1.00;;;18.50;76.00;;;;;;5046070;28;45220;-80
2022/01/02 08:44:34;;;;;;;1.45;1.15;;;18.50;76.00;;;;;;5006393;28;46205;-80
2022/01/02 08:47:02;;;;;;;2.10;1.38;;;18.50;76.00;;;;;;5026272;28;45698;-80
2022/01/02 08:49:36;;;;;;;1.65;1.30;;;18.50;75.90;;;;;;5032646;28;45306;-80
2022/01/02 08:52:04;;;;;;;1.42;1.13;;;18.50;75.90;;;;;;5024896;28;45305;-80
2022/01/02 08:54:32;;;;;;;1.17;1.00;;;18.60;76.30;;;;;;5033645;28;47360;-80
2022/01/02 08:56:59;;;;;;;1.83;1.30;;;18.50;76.00;;;;;;5031920;28;45599;-79
2022/01/02 08:59:28;;;;;;;1.27;0.93;;;18.50;75.90;;;;;;5032552;28;45201;-79
2022/01/02 09:01:55;;;;;;;1.13;0.80;;;18.50;75.90;;;;;;5033156;28;45341;-79
2022/01/02 09:04:22;;;;;;;1.70;1.13;;;18.50;75.80;;;;;;5045413;28;47477;-78
2022/01/02 09:06:52;;;;;;;11.32;1.38;;;18.50;76.00;;;;;;5030864;28;45462;-77
2022/01/02 09:09:19;;;;;;;20.58;2.95;;;18.60;77.00;;;;;;5031481;28;45342;-79
2022/01/02 09:11:46;;;;;;;12.13;1.35;;;18.70;77.10;;;;;;5030144;28;45372;-80
2022/01/02 09:14:14;;;;;;;6.03;1.08;;;18.70;75.90;;;;;;5028234;28;46672;-80
2022/01/02 09:16:44;;;;;;;5.53;1.15;;;18.60;75.40;;;;;;5031908;28;45286;-80
2022/01/02 09:19:12;;;;;;;3.45;0.82;;;18.60;75.50;;;;;;5012710;28;45285;-80
2022/01/02 09:21:39;;;;;;;1.08;0.93;;;18.60;75.40;;;;;;5021444;28;45608;-79
2022/01/02 09:24:10;;;;;;;2.40;1.00;;;18.60;75.30;;;;;;5028769;28;46316;-80
2022/01/02 09:26:37;;;;;;;3.55;0.90;;;18.60;75.20;;;;;;5027336;28;45223;-80
2022/01/02 09:29:04;;;;;;;2.97;1.10;;;18.60;75.10;;;;;;5018032;28;45360;-80
2022/01/02 09:31:32;;;;;;;1.17;0.88;;;18.60;75.10;;;;;;5036935;28;45141;-79
2022/01/02 09:33:59;;;;;;;0.90;0.77;;;18.60;75.00;;;;;;5033966;28;45387;-79
2022/01/02 09:36:27;;;;;;;3.85;0.65;;;18.60;75.00;;;;;;5033758;28;46456;-82
2022/01/02 09:38:56;;;;;;;1.08;0.80;;;18.60;74.90;;;;;;5032402;28;45184;-79
2022/01/02 09:41:25;;;;;;;1.73;0.85;;;18.60;74.90;;;;;;5031569;28;45111;-81
2022/01/02 09:43:53;;;;;;;2.15;0.88;;;18.60;74.90;;;;;;5035546;28;46755;-79
2022/01/02 09:46:22;;;;;;;2.63;0.90;;;18.70;74.90;;;;;;5025960;28;45204;-78
2022/01/02 09:49:00;;;;;;;1.45;0.88;;;18.80;74.70;;;;;;5032750;28;45331;-79
2022/01/02 09:51:29;;;;;;;2.15;0.90;;;18.90;74.20;;;;;;5029791;28;45316;-80
2022/01/02 09:53:59;;;;;;;1.45;0.93;;;18.80;73.50;;;;;;5025563;28;48390;-80
2022/01/02 09:56:29;;;;;;;4.72;1.10;;;18.90;73.30;;;;;;5004398;28;46036;-83
2022/01/02 09:58:56;;;;;;;3.90;1.08;;;18.80;73.30;;;;;;5032003;28;45282;-79
2022/01/02 10:01:24;;;;;;;1.70;0.90;;;18.90;73.00;;;;;;5033106;28;45232;-78
2022/01/02 10:03:55;;;;;;;2.20;0.90;;;18.90;72.90;;;;;;5018817;28;47317;-77
2022/01/02 10:06:38;;;;;;;1.13;0.95;;;19.00;72.90;;;;;;5024573;28;45668;-79
2022/01/02 10:09:09;;;;;;;1.38;1.00;;;19.00;72.80;;;;;;5030624;28;45825;-79
2022/01/02 10:11:40;;;;;;;1.27;0.77;;;19.10;72.70;;;;;;5026492;28;45371;-79
2022/01/02 10:14:10;;;;;;;2.63;0.90;;;19.00;72.50;;;;;;5029892;28;47057;-79
2022/01/02 10:16:41;;;;;;;2.65;1.10;;;19.00;72.40;;;;;;5027635;28;45420;-80
2022/01/02 10:19:20;;;;;;;1.30;1.00;;;19.00;72.30;;;;;;5019546;28;45328;-80
2022/01/02 10:21:54;;;;;;;2.90;1.15;;;19.00;72.10;;;;;;5025854;28;45330;-81
2022/01/02 10:24:26;;;;;;;1.00;0.70;;;19.00;72.00;;;;;;5030504;28;48441;-81
2022/01/02 10:27:18;;;;;;;1.52;0.90;;;19.00;71.80;;;;;;5029500;28;46228;-81
2022/01/02 10:29:50;;;;;;;2.92;0.80;;;19.00;71.80;;;;;;5033237;28;45243;-80
2022/01/02 10:32:41;;;;;;;4.75;1.23;;;19.00;71.70;;;;;;5029892;28;45297;-81
2022/01/02 10:35:12;;;;;;;1.58;0.98;;;19.10;71.60;;;;;;5024148;28;47282;-80
2022/01/02 10:37:42;;;;;;;1.67;0.90;;;19.00;71.40;;;;;;5025968;28;45851;-81
2022/01/02 10:40:27;;;;;;;1.38;0.93;;;19.00;71.40;;;;;;5033558;28;45360;-80
2022/01/02 10:42:57;;;;;;;2.00;1.00;;;19.00;71.50;;;;;;5033349;28;45246;-80
2022/01/02 10:45:33;;;;;;;2.22;0.75;;;19.00;71.40;;;;;;5031732;28;46484;-81
2022/01/02 10:48:00;;;;;;;1.70;1.15;;;19.00;71.50;;;;;;5026910;28;45788;-82
2022/01/02 10:50:31;;;;;;;1.60;1.00;;;19.00;71.40;;;;;;5032373;28;45217;-83
2022/01/02 10:53:02;;;;;;;2.63;1.05;;;19.00;71.40;;;;;;5032125;28;45267;-84
2022/01/02 10:55:30;;;;;;;2.35;1.30;;;18.90;72.10;;;;;;5033136;28;47825;-81
2022/01/02 10:58:05;;;;;;;2.38;1.10;;;18.90;71.30;;;;;;5029569;28;45196;-81
2022/01/02 11:00:32;;;;;;;1.77;0.95;;;19.00;71.50;;;;;;5029599;28;45308;-80
2022/01/02 11:03:05;;;;;;;1.80;0.88;;;18.90;72.20;;;;;;5036600;28;45343;-87
2022/01/02 11:05:36;;;;;;;3.72;1.25;;;18.90;72.60;;;;;;5046303;28;46406;-86
2022/01/02 11:08:06;;;;;;;1.80;1.00;;;19.50;75.90;;;;;;5041183;28;45118;-86
2022/01/02 11:10:39;;;;;;;2.05;1.30;;;19.40;76.30;;;;;;5042236;28;45324;-85
2022/01/02 11:13:20;;;;;;;3.60;1.30;;;19.10;74.60;;;;;;5041566;28;45224;-86
2022/01/02 11:15:48;;;;;;;3.72;1.10;;;19.20;74.70;;;;;;5021170;28;45401;-86
2022/01/02 11:18:18;;;;;;;3.60;1.17;;;18.30;73.70;;;;;;5041701;28;45242;-86
2022/01/02 11:20:55;;;;;;;2.15;1.20;;;21.60;76.20;;;;;;5045430;28;44766;-83
2022/01/02 11:23:31;;;;;;;3.22;1.48;;;18.90;76.00;;;;;;5036808;28;45193;-83
2022/01/02 11:26:09;;;;;;;1.67;1.20;;;18.80;71.80;;;;;;5035730;28;47589;-84
2022/01/02 11:28:43;;;;;;;1.95;1.20;;;18.70;71.90;;;;;;5038849;28;45994;-83
2022/01/02 11:31:11;;;;;;;3.60;1.40;;;18.70;71.90;;;;;;5039432;28;45220;-83
2022/01/02 11:33:43;;;;;;;3.83;1.45;;;18.70;72.20;;;;;;5029861;28;45264;-83
2022/01/02 11:36:28;;;;;;;2.17;1.20;;;18.70;72.40;;;;;;5040268;28;48527;-85
2022/01/02 11:39:04;;;;;;;2.17;1.20;;;18.70;73.50;;;;;;5029768;28;45162;-84
2022/01/02 11:41:39;;;;;;;2.38;1.13;;;19.50;73.00;;;;;;5046420;28;44749;-84
2022/01/02 11:44:10;;;;;;;3.10;1.35;;;20.90;75.10;;;;;;5042903;28;45227;-83
2022/01/02 11:46:51;;;;;;;1.85;1.00;;;18.90;75.50;;;;;;5044979;28;47035;-84
2022/01/02 11:49:38;;;;;;;1.42;0.98;;;18.50;72.30;;;;;;5032081;28;45640;-82
2022/01/02 11:52:21;;;;;;;1.73;1.10;;;18.70;72.20;;;;;;5034776;28;45660;-83
2022/01/02 11:54:59;;;;;;;1.65;1.05;;;18.80;71.70;;;;;;5048976;28;45169;-85
2022/01/02 11:57:54;;;;;;;1.90;1.23;;;18.70;71.80;;;;;;5045770;28;47408;-81
2022/01/02 12:00:45;;;;;;;4.68;1.73;;;18.80;71.60;;;;;;5031635;28;45198;-77
2022/01/02 12:03:47;;;;;;;13.65;2.38;;;18.80;75.60;;;;;;5029264;28;45285;-79
2022/01/02 12:06:18;;;;;;;8.35;1.80;;;18.90;77.30;;;;;;5029411;28;45276;-77
2022/01/02 12:08:47;;;;;;;8.48;1.73;;;19.00;77.00;;;;;;5027284;28;46422;-78
2022/01/02 12:11:42;;;;;;;9.75;1.67;;;19.20;76.60;;;;;;5042802;28;45114;-77
2022/01/02 12:14:12;;;;;;;7.57;1.40;;;19.40;76.20;;;;;;5021702;28;45309;-78
2022/01/02 12:16:43;;;;;;;4.97;1.35;;;19.60;76.20;;;;;;5034282;28;45400;-77
2022/01/02 12:19:13;;;;;;;6.25;1.55;;;19.80;76.10;;;;;;5025815;28;47953;-78
2022/01/02 12:22:10;;;;;;;5.03;1.25;;;20.00;76.30;;;;;;5045944;28;45192;-77
2022/01/02 12:24:37;;;;;;;4.35;1.23;;;20.20;76.40;;;;;;5027888;28;45173;-77
2022/01/02 12:27:12;;;;;;;7.22;1.60;;;20.40;77.30;;;;;;5021332;28;45167;-76
2022/01/02 12:29:40;;;;;;;2.63;1.20;;;20.50;77.50;;;;;;5032316;28;47309;-77
2022/01/02 12:32:09;;;;;;;4.13;1.63;;;20.70;78.40;;;;;;5037824;28;45424;-76
2022/01/02 12:34:36;;;;;;;6.47;1.40;;;20.90;78.90;;;;;;5027026;28;45383;-76
2022/01/02 12:37:04;;;;;;;3.60;1.40;;;21.00;78.10;;;;;;5026811;28;45341;-76
2022/01/02 12:39:34;;;;;;;5.88;1.77;;;21.10;78.10;;;;;;5024543;28;48450;-76
2022/01/02 12:42:03;;;;;;;4.45;1.55;;;21.20;78.30;;;;;;5026750;28;45525;-77
2022/01/02 12:44:32;;;;;;;9.68;2.45;;;21.30;77.90;;;;;;5026930;28;45198;-76
2022/01/02 12:47:01;;;;;;;2.80;1.40;;;21.30;78.40;;;;;;5029276;28;45178;-76
2022/01/02 12:49:32;;;;;;;5.75;1.70;;;21.40;77.60;;;;;;5029135;28;45211;-76
2022/01/02 12:52:01;;;;;;;4.97;1.77;;;21.40;77.70;;;;;;5025166;28;45362;-76
2022/01/02 12:54:30;;;;;;;4.78;1.70;;;21.50;78.00;;;;;;5024739;28;45347;-76
2022/01/02 12:56:59;;;;;;;4.63;1.58;;;21.50;77.50;;;;;;5027451;28;45225;-76
2022/01/02 12:59:29;;;;;;;5.93;1.88;;;21.40;76.30;;;;;;5039031;28;47542;-76
2022/01/02 13:01:58;;;;;;;4.80;1.83;;;21.50;76.40;;;;;;5030267;28;45922;-77
2022/01/02 13:04:29;;;;;;;5.38;1.70;;;21.40;76.30;;;;;;5025939;28;45467;-77
2022/01/02 13:07:01;;;;;;;6.18;2.00;;;21.30;77.00;;;;;;5020903;28;45486;-76
2022/01/02 13:09:31;;;;;;;2.80;1.58;;;21.20;75.70;;;;;;5023453;28;47831;-76
2022/01/02 13:11:59;;;;;;;4.95;1.65;;;20.90;74.80;;;;;;5025685;28;45398;-76
2022/01/02 13:14:36;;;;;;;4.95;1.50;;;20.60;75.10;;;;;;5030330;28;45202;-76
2022/01/02 13:17:07;;;;;;;2.30;1.27;;;20.40;75.80;;;;;;5031001;28;45442;-76
2022/01/02 13:19:38;;;;;;;4.65;1.52;;;20.30;76.60;;;;;;5023754;28;47532;-76
2022/01/02 13:22:08;;;;;;;3.00;1.23;;;20.20;76.50;;;;;;5020622;28;46236;-76
2022/01/02 13:24:37;;;;;;;6.38;1.58;;;20.10;76.50;;;;;;5028747;28;45603;-76